sensor_id;sensor_type;location;lat;lon;timestamp;temperature;humidity
31991;DHT22;18508;49.386;8.370;2023-11-19T00:21:28;9.10;99.90
31991;DHT22;18508;49.386;8.370;2023-11-19T00:38:52;8.30;99.90
31991;DHT22;18508;49.386;8.370;2023-11-19T01:11:07;8.90;99.90
31991;DHT22;18508;49.386;8.370;2023-11-19T01:13:36;9.20;99.90
31991;DHT22;18508;49.386;8.370;2023-11-19T01:16:05;12.20;99.90
31991;DHT22;18508;49.386;8.370;2023-11-19T01:21:03;9.00;99.90
31991;DHT22;18508;49.386;8.370;2023-11-19T01:31:02;9.30;99.90
31991;DHT22;18508;49.386;8.370;2023-11-19T01:53:29;9.10;99.90
31991;DHT22;18508;49.386;8.370;2023-11-19T02:00:57;8.50;99.90
31991;DHT22;18508;49.386;8.370;2023-11-19T02:03:27;9.40;99.90
31991;DHT22;18508;49.386;8.370;2023-11-19T02:05:57;9.60;99.90
31991;DHT22;18508;49.386;8.370;2023-11-19T02:10:55;9.70;99.90
31991;DHT22;18508;49.386;8.370;2023-11-19T02:13:24;9.40;99.90
31991;DHT22;18508;49.386;8.370;2023-11-19T02:18:23;9.00;99.90
31991;DHT22;18508;49.386;8.370;2023-11-19T02:20:57;9.40;99.90
31991;DHT22;18508;49.386;8.370;2023-11-19T02:23:27;9.30;99.90
31991;DHT22;18508;49.386;8.370;2023-11-19T02:26:02;9.10;99.90
31991;DHT22;18508;49.386;8.370;2023-11-19T02:28:34;9.90;99.90
31991;DHT22;18508;49.386;8.370;2023-11-19T02:31:04;9.50;99.90
31991;DHT22;18508;49.386;8.370;2023-11-19T02:36:06;9.50;99.90
31991;DHT22;18508;49.386;8.370;2023-11-19T02:41:04;9.60;99.90
31991;DHT22;18508;49.386;8.370;2023-11-19T02:43:34;9.60;99.90
31991;DHT22;18508;49.386;8.370;2023-11-19T02:46:04;9.60;99.90
31991;DHT22;18508;49.386;8.370;2023-11-19T02:48:37;8.90;99.90
31991;DHT22;18508;49.386;8.370;2023-11-19T02:51:05;9.60;99.90
31991;DHT22;18508;49.386;8.370;2023-11-19T02:53:36;9.80;99.90
31991;DHT22;18508;49.386;8.370;2023-11-19T02:56:07;9.60;99.90
31991;DHT22;18508;49.386;8.370;2023-11-19T02:58:44;9.40;99.90
31991;DHT22;18508;49.386;8.370;2023-11-19T03:16:18;9.80;99.90
31991;DHT22;18508;49.386;8.370;2023-11-19T03:28:41;9.90;99.90
31991;DHT22;18508;49.386;8.370;2023-11-19T03:31:10;9.80;99.90
31991;DHT22;18508;49.386;8.370;2023-11-19T03:33:38;10.20;99.90
31991;DHT22;18508;49.386;8.370;2023-11-19T03:36:08;10.20;99.90
31991;DHT22;18508;49.386;8.370;2023-11-19T03:38:37;10.20;99.90
31991;DHT22;18508;49.386;8.370;2023-11-19T03:41:10;10.00;99.90
31991;DHT22;18508;49.386;8.370;2023-11-19T03:43:39;10.10;99.90
31991;DHT22;18508;49.386;8.370;2023-11-19T03:46:17;10.50;99.90
31991;DHT22;18508;49.386;8.370;2023-11-19T03:48:46;9.90;99.90
31991;DHT22;18508;49.386;8.370;2023-11-19T03:51:14;9.70;99.90
31991;DHT22;18508;49.386;8.370;2023-11-19T03:53:42;9.80;99.90
31991;DHT22;18508;49.386;8.370;2023-11-19T03:56:12;9.70;99.90
31991;DHT22;18508;49.386;8.370;2023-11-19T03:58:41;10.20;99.90
31991;DHT22;18508;49.386;8.370;2023-11-19T04:01:11;9.90;99.90
31991;DHT22;18508;49.386;8.370;2023-11-19T04:03:42;9.90;99.90
31991;DHT22;18508;49.386;8.370;2023-11-19T04:06:13;9.50;99.90
31991;DHT22;18508;49.386;8.370;2023-11-19T04:08:41;9.70;99.90
31991;DHT22;18508;49.386;8.370;2023-11-19T04:11:10;9.90;99.90
31991;DHT22;18508;49.386;8.370;2023-11-19T04:13:39;10.30;99.90
31991;DHT22;18508;49.386;8.370;2023-11-19T04:16:07;10.00;99.90
31991;DHT22;18508;49.386;8.370;2023-11-19T04:18:38;10.50;99.90
31991;DHT22;18508;49.386;8.370;2023-11-19T04:21:09;10.20;99.90
31991;DHT22;18508;49.386;8.370;2023-11-19T04:23:39;9.80;99.90
31991;DHT22;18508;49.386;8.370;2023-11-19T04:26:07;10.80;99.90
31991;DHT22;18508;49.386;8.370;2023-11-19T04:28:37;10.60;99.90
31991;DHT22;18508;49.386;8.370;2023-11-19T04:31:06;10.70;99.90
31991;DHT22;18508;49.386;8.370;2023-11-19T04:33:36;10.80;99.90
31991;DHT22;18508;49.386;8.370;2023-11-19T04:36:04;10.00;99.90
31991;DHT22;18508;49.386;8.370;2023-11-19T04:38:36;9.90;99.90
31991;DHT22;18508;49.386;8.370;2023-11-19T04:41:05;10.70;99.90
31991;DHT22;18508;49.386;8.370;2023-11-19T04:43:34;10.50;99.90
31991;DHT22;18508;49.386;8.370;2023-11-19T04:46:05;11.00;99.90
31991;DHT22;18508;49.386;8.370;2023-11-19T04:48:33;10.40;99.90
31991;DHT22;18508;49.386;8.370;2023-11-19T04:51:05;10.10;99.90
31991;DHT22;18508;49.386;8.370;2023-11-19T04:53:34;10.20;99.90
31991;DHT22;18508;49.386;8.370;2023-11-19T04:56:08;10.50;99.90
31991;DHT22;18508;49.386;8.370;2023-11-19T04:58:37;10.30;99.90
31991;DHT22;18508;49.386;8.370;2023-11-19T05:01:05;11.10;99.90
31991;DHT22;18508;49.386;8.370;2023-11-19T05:03:33;10.90;99.90
31991;DHT22;18508;49.386;8.370;2023-11-19T05:06:04;11.20;99.90
31991;DHT22;18508;49.386;8.370;2023-11-19T05:08:34;10.80;99.90
31991;DHT22;18508;49.386;8.370;2023-11-19T05:11:03;11.10;99.90
31991;DHT22;18508;49.386;8.370;2023-11-19T05:13:32;10.70;99.90
31991;DHT22;18508;49.386;8.370;2023-11-19T05:16:01;11.30;99.90
31991;DHT22;18508;49.386;8.370;2023-11-19T05:18:29;11.30;99.90
31991;DHT22;18508;49.386;8.370;2023-11-19T05:20:57;10.70;99.90
31991;DHT22;18508;49.386;8.370;2023-11-19T05:23:25;10.70;99.90
31991;DHT22;18508;49.386;8.370;2023-11-19T05:25:54;11.50;99.90
31991;DHT22;18508;49.386;8.370;2023-11-19T05:28:23;11.20;99.90
31991;DHT22;18508;49.386;8.370;2023-11-19T05:30:54;11.10;99.90
31991;DHT22;18508;49.386;8.370;2023-11-19T05:33:22;11.20;99.90
31991;DHT22;18508;49.386;8.370;2023-11-19T05:35:53;11.00;99.90
31991;DHT22;18508;49.386;8.370;2023-11-19T05:38:21;11.10;99.90
31991;DHT22;18508;49.386;8.370;2023-11-19T05:40:50;11.20;99.90
31991;DHT22;18508;49.386;8.370;2023-11-19T05:43:19;10.90;99.90
31991;DHT22;18508;49.386;8.370;2023-11-19T05:45:48;11.70;99.90
31991;DHT22;18508;49.386;8.370;2023-11-19T05:48:17;10.70;99.90
31991;DHT22;18508;49.386;8.370;2023-11-19T05:50:45;10.70;99.90
31991;DHT22;18508;49.386;8.370;2023-11-19T05:53:13;11.10;99.90
31991;DHT22;18508;49.386;8.370;2023-11-19T05:55:41;11.10;99.90
31991;DHT22;18508;49.386;8.370;2023-11-19T05:58:15;11.20;99.90
31991;DHT22;18508;49.386;8.370;2023-11-19T06:00:47;11.40;99.90
31991;DHT22;18508;49.386;8.370;2023-11-19T06:03:15;10.80;99.90
31991;DHT22;18508;49.386;8.370;2023-11-19T06:05:44;11.50;99.90
31991;DHT22;18508;49.386;8.370;2023-11-19T06:08:14;11.20;99.90
31991;DHT22;18508;49.386;8.370;2023-11-19T06:10:43;11.30;99.90
31991;DHT22;18508;49.386;8.370;2023-11-19T06:13:14;11.80;99.90
31991;DHT22;18508;49.386;8.370;2023-11-19T06:15:44;11.60;99.90
31991;DHT22;18508;49.386;8.370;2023-11-19T06:18:12;11.60;99.90
31991;DHT22;18508;49.386;8.370;2023-11-19T06:20:41;11.60;99.90
31991;DHT22;18508;49.386;8.370;2023-11-19T06:23:10;11.30;99.90
31991;DHT22;18508;49.386;8.370;2023-11-19T06:25:38;11.90;99.90
31991;DHT22;18508;49.386;8.370;2023-11-19T06:28:09;11.40;99.90
31991;DHT22;18508;49.386;8.370;2023-11-19T06:30:38;11.00;99.90
31991;DHT22;18508;49.386;8.370;2023-11-19T06:33:15;11.40;99.90
31991;DHT22;18508;49.386;8.370;2023-11-19T06:35:47;11.90;99.90
31991;DHT22;18508;49.386;8.370;2023-11-19T06:38:17;11.40;99.90
31991;DHT22;18508;49.386;8.370;2023-11-19T06:40:46;11.50;99.90
31991;DHT22;18508;49.386;8.370;2023-11-19T06:43:17;11.50;99.90
31991;DHT22;18508;49.386;8.370;2023-11-19T06:45:45;11.40;99.90
31991;DHT22;18508;49.386;8.370;2023-11-19T06:48:15;11.50;99.90
31991;DHT22;18508;49.386;8.370;2023-11-19T06:50:43;11.20;99.90
31991;DHT22;18508;49.386;8.370;2023-11-19T06:53:11;11.50;99.90
31991;DHT22;18508;49.386;8.370;2023-11-19T06:55:39;11.60;99.90
31991;DHT22;18508;49.386;8.370;2023-11-19T06:58:07;10.70;99.90
31991;DHT22;18508;49.386;8.370;2023-11-19T07:00:37;11.50;99.90
31991;DHT22;18508;49.386;8.370;2023-11-19T07:03:05;11.70;99.90
31991;DHT22;18508;49.386;8.370;2023-11-19T07:05:37;11.80;99.90
31991;DHT22;18508;49.386;8.370;2023-11-19T07:08:06;11.60;99.90
31991;DHT22;18508;49.386;8.370;2023-11-19T07:10:36;11.90;99.90
31991;DHT22;18508;49.386;8.370;2023-11-19T07:13:04;11.80;99.90
31991;DHT22;18508;49.386;8.370;2023-11-19T07:15:37;11.90;99.90
31991;DHT22;18508;49.386;8.370;2023-11-19T07:18:06;11.60;99.90
31991;DHT22;18508;49.386;8.370;2023-11-19T07:20:36;11.90;99.90
31991;DHT22;18508;49.386;8.370;2023-11-19T07:23:06;12.00;99.90
31991;DHT22;18508;49.386;8.370;2023-11-19T07:25:35;11.80;99.90
31991;DHT22;18508;49.386;8.370;2023-11-19T07:28:03;12.00;99.90
31991;DHT22;18508;49.386;8.370;2023-11-19T07:30:32;11.70;99.90
31991;DHT22;18508;49.386;8.370;2023-11-19T07:33:00;12.20;99.90
31991;DHT22;18508;49.386;8.370;2023-11-19T07:35:31;11.80;99.90
31991;DHT22;18508;49.386;8.370;2023-11-19T07:38:00;12.00;99.90
31991;DHT22;18508;49.386;8.370;2023-11-19T07:40:29;12.00;99.90
31991;DHT22;18508;49.386;8.370;2023-11-19T07:42:57;11.90;99.90
31991;DHT22;18508;49.386;8.370;2023-11-19T07:45:25;12.00;99.90
31991;DHT22;18508;49.386;8.370;2023-11-19T07:47:54;11.90;99.90
31991;DHT22;18508;49.386;8.370;2023-11-19T07:50:22;11.80;99.90
31991;DHT22;18508;49.386;8.370;2023-11-19T07:52:51;11.90;99.90
31991;DHT22;18508;49.386;8.370;2023-11-19T07:55:21;11.90;99.90
31991;DHT22;18508;49.386;8.370;2023-11-19T07:57:48;11.90;99.90
31991;DHT22;18508;49.386;8.370;2023-11-19T08:00:17;11.80;99.90
31991;DHT22;18508;49.386;8.370;2023-11-19T08:02:47;11.90;99.90
31991;DHT22;18508;49.386;8.370;2023-11-19T08:05:16;11.90;99.90
31991;DHT22;18508;49.386;8.370;2023-11-19T08:07:45;11.60;99.90
31991;DHT22;18508;49.386;8.370;2023-11-19T08:10:14;11.90;99.90
31991;DHT22;18508;49.386;8.370;2023-11-19T08:12:43;11.90;99.90
31991;DHT22;18508;49.386;8.370;2023-11-19T08:15:11;12.00;99.90
31991;DHT22;18508;49.386;8.370;2023-11-19T08:17:39;12.10;99.90
31991;DHT22;18508;49.386;8.370;2023-11-19T08:20:08;12.10;99.90
31991;DHT22;18508;49.386;8.370;2023-11-19T08:22:37;12.30;99.90
31991;DHT22;18508;49.386;8.370;2023-11-19T08:25:06;12.40;99.90
31991;DHT22;18508;49.386;8.370;2023-11-19T08:27:34;12.70;99.90
31991;DHT22;18508;49.386;8.370;2023-11-19T08:30:06;12.90;99.90
31991;DHT22;18508;49.386;8.370;2023-11-19T08:32:35;13.30;99.90
31991;DHT22;18508;49.386;8.370;2023-11-19T08:35:04;13.30;99.90
31991;DHT22;18508;49.386;8.370;2023-11-19T08:37:32;13.40;99.90
31991;DHT22;18508;49.386;8.370;2023-11-19T08:40:06;13.50;99.90
31991;DHT22;18508;49.386;8.370;2023-11-19T08:42:34;13.50;99.90
31991;DHT22;18508;49.386;8.370;2023-11-19T08:45:06;13.80;99.90
31991;DHT22;18508;49.386;8.370;2023-11-19T08:47:34;13.80;99.90
31991;DHT22;18508;49.386;8.370;2023-11-19T08:50:02;13.90;99.90
31991;DHT22;18508;49.386;8.370;2023-11-19T08:52:31;14.30;99.90
31991;DHT22;18508;49.386;8.370;2023-11-19T08:55:01;14.00;99.90
31991;DHT22;18508;49.386;8.370;2023-11-19T08:57:29;13.90;99.90
31991;DHT22;18508;49.386;8.370;2023-11-19T08:59:57;14.10;99.90
31991;DHT22;18508;49.386;8.370;2023-11-19T09:02:27;13.90;99.90
31991;DHT22;18508;49.386;8.370;2023-11-19T09:04:57;13.50;99.90
31991;DHT22;18508;49.386;8.370;2023-11-19T09:07:25;13.80;99.90
31991;DHT22;18508;49.386;8.370;2023-11-19T09:09:53;13.50;99.90
31991;DHT22;18508;49.386;8.370;2023-11-19T09:12:22;13.70;99.90
31991;DHT22;18508;49.386;8.370;2023-11-19T09:14:52;13.70;99.90
31991;DHT22;18508;49.386;8.370;2023-11-19T09:17:20;13.60;99.90
31991;DHT22;18508;49.386;8.370;2023-11-19T09:19:49;13.60;99.90
31991;DHT22;18508;49.386;8.370;2023-11-19T09:22:17;13.70;99.90
31991;DHT22;18508;49.386;8.370;2023-11-19T09:24:46;13.60;99.90
31991;DHT22;18508;49.386;8.370;2023-11-19T09:27:15;16.00;99.90
31991;DHT22;18508;49.386;8.370;2023-11-19T09:29:43;14.00;99.90
31991;DHT22;18508;49.386;8.370;2023-11-19T09:32:13;13.40;99.90
31991;DHT22;18508;49.386;8.370;2023-11-19T09:34:42;13.80;99.90
31991;DHT22;18508;49.386;8.370;2023-11-19T09:37:11;13.40;99.90
31991;DHT22;18508;49.386;8.370;2023-11-19T09:39:42;13.70;99.90
31991;DHT22;18508;49.386;8.370;2023-11-19T09:42:10;13.30;99.90
31991;DHT22;18508;49.386;8.370;2023-11-19T09:44:39;13.50;99.90
31991;DHT22;18508;49.386;8.370;2023-11-19T09:47:08;13.80;99.90
31991;DHT22;18508;49.386;8.370;2023-11-19T09:49:36;13.40;99.90
31991;DHT22;18508;49.386;8.370;2023-11-19T09:52:05;13.60;99.90
31991;DHT22;18508;49.386;8.370;2023-11-19T09:54:35;13.70;99.90
31991;DHT22;18508;49.386;8.370;2023-11-19T09:57:04;13.70;99.90
31991;DHT22;18508;49.386;8.370;2023-11-19T09:59:37;13.40;99.90
31991;DHT22;18508;49.386;8.370;2023-11-19T10:02:07;13.70;99.90
31991;DHT22;18508;49.386;8.370;2023-11-19T10:04:38;13.80;99.90
31991;DHT22;18508;49.386;8.370;2023-11-19T10:07:07;13.70;99.90
31991;DHT22;18508;49.386;8.370;2023-11-19T10:09:37;13.90;99.90
31991;DHT22;18508;49.386;8.370;2023-11-19T10:12:05;13.90;99.90
31991;DHT22;18508;49.386;8.370;2023-11-19T10:14:35;14.00;99.90
31991;DHT22;18508;49.386;8.370;2023-11-19T10:17:07;14.10;99.90
31991;DHT22;18508;49.386;8.370;2023-11-19T10:19:36;14.20;99.90
31991;DHT22;18508;49.386;8.370;2023-11-19T10:22:05;14.20;99.90
31991;DHT22;18508;49.386;8.370;2023-11-19T10:24:34;14.30;99.90
31991;DHT22;18508;49.386;8.370;2023-11-19T10:27:10;14.30;99.90
31991;DHT22;18508;49.386;8.370;2023-11-19T10:29:40;14.60;99.90
31991;DHT22;18508;49.386;8.370;2023-11-19T10:32:09;14.40;99.90
31991;DHT22;18508;49.386;8.370;2023-11-19T10:34:56;14.50;99.90
31991;DHT22;18508;49.386;8.370;2023-11-19T10:37:32;14.80;99.90
31991;DHT22;18508;49.386;8.370;2023-11-19T10:40:05;14.60;99.90
31991;DHT22;18508;49.386;8.370;2023-11-19T10:42:35;14.90;99.90
31991;DHT22;18508;49.386;8.370;2023-11-19T10:45:04;14.30;99.90
31991;DHT22;18508;49.386;8.370;2023-11-19T10:47:34;14.60;99.90
31991;DHT22;18508;49.386;8.370;2023-11-19T10:50:05;14.50;99.90
31991;DHT22;18508;49.386;8.370;2023-11-19T10:52:35;14.50;99.90
31991;DHT22;18508;49.386;8.370;2023-11-19T10:55:07;14.50;99.90
31991;DHT22;18508;49.386;8.370;2023-11-19T10:57:39;14.30;99.90
31991;DHT22;18508;49.386;8.370;2023-11-19T11:00:09;13.70;99.90
31991;DHT22;18508;49.386;8.370;2023-11-19T11:02:42;14.40;99.90
31991;DHT22;18508;49.386;8.370;2023-11-19T11:05:13;14.00;99.90
31991;DHT22;18508;49.386;8.370;2023-11-19T11:07:43;14.50;99.90
31991;DHT22;18508;49.386;8.370;2023-11-19T11:10:13;13.90;99.90
31991;DHT22;18508;49.386;8.370;2023-11-19T11:12:43;14.10;99.90
31991;DHT22;18508;49.386;8.370;2023-11-19T11:15:14;14.00;99.90
31991;DHT22;18508;49.386;8.370;2023-11-19T11:17:44;14.50;99.90
31991;DHT22;18508;49.386;8.370;2023-11-19T11:20:12;14.50;99.90
31991;DHT22;18508;49.386;8.370;2023-11-19T11:22:57;14.60;99.90
31991;DHT22;18508;49.386;8.370;2023-11-19T11:25:40;14.70;99.90
31991;DHT22;18508;49.386;8.370;2023-11-19T11:28:26;14.80;99.90
31991;DHT22;18508;49.386;8.370;2023-11-19T11:31:09;14.90;99.90
31991;DHT22;18508;49.386;8.370;2023-11-19T11:33:54;15.10;99.90
31991;DHT22;18508;49.386;8.370;2023-11-19T11:36:31;15.30;1.00
31991;DHT22;18508;49.386;8.370;2023-11-19T11:39:07;15.40;99.90
31991;DHT22;18508;49.386;8.370;2023-11-19T11:41:36;15.50;99.90
31991;DHT22;18508;49.386;8.370;2023-11-19T11:44:06;15.60;99.90
31991;DHT22;18508;49.386;8.370;2023-11-19T11:46:54;15.80;99.90
31991;DHT22;18508;49.386;8.370;2023-11-19T11:49:26;15.80;99.90
31991;DHT22;18508;49.386;8.370;2023-11-19T11:52:03;15.90;99.90
31991;DHT22;18508;49.386;8.370;2023-11-19T11:54:32;16.10;8.60
31991;DHT22;18508;49.386;8.370;2023-11-19T11:57:03;16.40;84.40
31991;DHT22;18508;49.386;8.370;2023-11-19T11:59:43;16.60;1.00
31991;DHT22;18508;49.386;8.370;2023-11-19T12:02:15;16.80;1.00
31991;DHT22;18508;49.386;8.370;2023-11-19T12:04:47;16.90;1.00
31991;DHT22;18508;49.386;8.370;2023-11-19T12:07:20;16.90;93.40
31991;DHT22;18508;49.386;8.370;2023-11-19T12:09:52;16.80;99.90
31991;DHT22;18508;49.386;8.370;2023-11-19T12:12:23;16.80;99.90
31991;DHT22;18508;49.386;8.370;2023-11-19T12:15:07;16.80;95.70
31991;DHT22;18508;49.386;8.370;2023-11-19T12:17:41;16.70;34.70
31991;DHT22;18508;49.386;8.370;2023-11-19T12:20:12;16.70;1.00
31991;DHT22;18508;49.386;8.370;2023-11-19T12:22:42;16.60;99.90
31991;DHT22;18508;49.386;8.370;2023-11-19T12:25:11;16.60;99.90
31991;DHT22;18508;49.386;8.370;2023-11-19T12:27:40;16.80;99.90
31991;DHT22;18508;49.386;8.370;2023-11-19T12:30:11;16.70;99.90
31991;DHT22;18508;49.386;8.370;2023-11-19T12:32:40;16.80;99.90
31991;DHT22;18508;49.386;8.370;2023-11-19T12:35:09;17.00;99.90
31991;DHT22;18508;49.386;8.370;2023-11-19T12:37:40;16.90;99.90
31991;DHT22;18508;49.386;8.370;2023-11-19T12:40:13;17.00;99.90
31991;DHT22;18508;49.386;8.370;2023-11-19T12:42:42;17.00;99.90
31991;DHT22;18508;49.386;8.370;2023-11-19T12:45:11;17.00;99.90
31991;DHT22;18508;49.386;8.370;2023-11-19T12:47:40;17.00;99.90
31991;DHT22;18508;49.386;8.370;2023-11-19T12:50:09;17.00;99.90
31991;DHT22;18508;49.386;8.370;2023-11-19T12:52:37;17.20;99.90
31991;DHT22;18508;49.386;8.370;2023-11-19T12:55:24;17.20;99.90
31991;DHT22;18508;49.386;8.370;2023-11-19T12:57:57;17.20;99.90
31991;DHT22;18508;49.386;8.370;2023-11-19T13:00:27;17.10;99.90
31991;DHT22;18508;49.386;8.370;2023-11-19T13:02:56;17.00;99.90
31991;DHT22;18508;49.386;8.370;2023-11-19T13:05:27;17.00;99.90
31991;DHT22;18508;49.386;8.370;2023-11-19T13:08:01;17.10;99.90
31991;DHT22;18508;49.386;8.370;2023-11-19T13:10:32;17.20;99.90
31991;DHT22;18508;49.386;8.370;2023-11-19T13:13:02;17.30;99.90
31991;DHT22;18508;49.386;8.370;2023-11-19T13:15:32;17.30;99.90
31991;DHT22;18508;49.386;8.370;2023-11-19T13:18:01;17.50;99.90
31991;DHT22;18508;49.386;8.370;2023-11-19T13:20:29;17.40;99.90
31991;DHT22;18508;49.386;8.370;2023-11-19T13:22:59;17.30;99.90
31991;DHT22;18508;49.386;8.370;2023-11-19T13:25:28;17.40;99.90
31991;DHT22;18508;49.386;8.370;2023-11-19T13:27:56;17.40;99.90
31991;DHT22;18508;49.386;8.370;2023-11-19T13:30:26;17.30;99.90
31991;DHT22;18508;49.386;8.370;2023-11-19T13:32:55;17.30;99.90
31991;DHT22;18508;49.386;8.370;2023-11-19T13:35:23;17.50;99.90
31991;DHT22;18508;49.386;8.370;2023-11-19T13:37:53;17.10;99.90
31991;DHT22;18508;49.386;8.370;2023-11-19T13:40:22;17.00;99.90
31991;DHT22;18508;49.386;8.370;2023-11-19T13:42:51;17.00;99.90
31991;DHT22;18508;49.386;8.370;2023-11-19T13:45:19;16.90;99.90
31991;DHT22;18508;49.386;8.370;2023-11-19T13:47:48;16.90;99.90
31991;DHT22;18508;49.386;8.370;2023-11-19T13:50:17;16.90;99.90
31991;DHT22;18508;49.386;8.370;2023-11-19T13:52:45;17.00;99.90
31991;DHT22;18508;49.386;8.370;2023-11-19T13:55:14;17.00;99.90
31991;DHT22;18508;49.386;8.370;2023-11-19T13:57:42;16.90;99.90
31991;DHT22;18508;49.386;8.370;2023-11-19T14:00:13;16.90;99.90
31991;DHT22;18508;49.386;8.370;2023-11-19T14:02:43;16.80;99.90
31991;DHT22;18508;49.386;8.370;2023-11-19T14:05:11;16.70;99.90
31991;DHT22;18508;49.386;8.370;2023-11-19T14:07:42;16.70;99.90
31991;DHT22;18508;49.386;8.370;2023-11-19T14:10:10;16.60;99.90
31991;DHT22;18508;49.386;8.370;2023-11-19T14:12:38;16.60;99.90
31991;DHT22;18508;49.386;8.370;2023-11-19T14:15:08;16.60;99.90
31991;DHT22;18508;49.386;8.370;2023-11-19T14:17:39;16.50;99.90
31991;DHT22;18508;49.386;8.370;2023-11-19T14:20:07;16.40;99.90
31991;DHT22;18508;49.386;8.370;2023-11-19T14:22:41;16.40;99.90
31991;DHT22;18508;49.386;8.370;2023-11-19T14:25:10;16.20;99.90
31991;DHT22;18508;49.386;8.370;2023-11-19T14:27:39;16.20;99.90
31991;DHT22;18508;49.386;8.370;2023-11-19T14:30:09;16.20;99.90
31991;DHT22;18508;49.386;8.370;2023-11-19T14:32:38;16.20;99.90
31991;DHT22;18508;49.386;8.370;2023-11-19T14:35:07;16.20;99.90
31991;DHT22;18508;49.386;8.370;2023-11-19T14:37:35;16.20;99.90
31991;DHT22;18508;49.386;8.370;2023-11-19T14:40:06;16.20;99.90
31991;DHT22;18508;49.386;8.370;2023-11-19T14:42:37;16.30;99.90
31991;DHT22;18508;49.386;8.370;2023-11-19T14:45:07;16.30;99.90
31991;DHT22;18508;49.386;8.370;2023-11-19T14:47:39;16.30;99.90
31991;DHT22;18508;49.386;8.370;2023-11-19T14:50:07;16.30;99.90
31991;DHT22;18508;49.386;8.370;2023-11-19T14:52:36;16.30;99.90
31991;DHT22;18508;49.386;8.370;2023-11-19T14:55:06;16.20;99.90
31991;DHT22;18508;49.386;8.370;2023-11-19T14:57:36;16.20;99.90
31991;DHT22;18508;49.386;8.370;2023-11-19T15:00:07;16.20;99.90
31991;DHT22;18508;49.386;8.370;2023-11-19T15:02:40;16.10;99.90
31991;DHT22;18508;49.386;8.370;2023-11-19T15:05:09;16.00;99.90
31991;DHT22;18508;49.386;8.370;2023-11-19T15:07:37;15.90;99.90
31991;DHT22;18508;49.386;8.370;2023-11-19T15:10:08;15.80;99.90
31991;DHT22;18508;49.386;8.370;2023-11-19T15:12:37;15.80;99.90
31991;DHT22;18508;49.386;8.370;2023-11-19T15:15:07;15.70;99.90
31991;DHT22;18508;49.386;8.370;2023-11-19T15:17:36;15.60;99.90
31991;DHT22;18508;49.386;8.370;2023-11-19T15:20:06;15.60;99.90
31991;DHT22;18508;49.386;8.370;2023-11-19T15:22:34;15.50;99.90
31991;DHT22;18508;49.386;8.370;2023-11-19T15:25:03;15.40;99.90
31991;DHT22;18508;49.386;8.370;2023-11-19T15:27:35;15.30;99.90
31991;DHT22;18508;49.386;8.370;2023-11-19T15:30:05;15.20;99.90
31991;DHT22;18508;49.386;8.370;2023-11-19T15:32:33;15.10;99.90
31991;DHT22;18508;49.386;8.370;2023-11-19T15:35:02;15.00;99.90
31991;DHT22;18508;49.386;8.370;2023-11-19T15:37:30;14.90;99.90
31991;DHT22;18508;49.386;8.370;2023-11-19T15:39:58;14.80;99.90
31991;DHT22;18508;49.386;8.370;2023-11-19T15:42:26;14.70;99.90
31991;DHT22;18508;49.386;8.370;2023-11-19T15:44:56;14.70;99.90
31991;DHT22;18508;49.386;8.370;2023-11-19T15:47:24;14.50;99.90
31991;DHT22;18508;49.386;8.370;2023-11-19T15:52:20;14.40;99.90
31991;DHT22;18508;49.386;8.370;2023-11-19T15:54:48;14.30;99.90
31991;DHT22;18508;49.386;8.370;2023-11-19T15:57:17;14.10;99.90
31991;DHT22;18508;49.386;8.370;2023-11-19T15:59:45;14.10;99.90
31991;DHT22;18508;49.386;8.370;2023-11-19T16:02:16;13.90;99.90
31991;DHT22;18508;49.386;8.370;2023-11-19T16:04:44;13.90;99.90
31991;DHT22;18508;49.386;8.370;2023-11-19T16:07:14;13.80;99.90
31991;DHT22;18508;49.386;8.370;2023-11-19T16:12:11;13.40;99.90
31991;DHT22;18508;49.386;8.370;2023-11-19T16:14:40;13.60;99.90
31991;DHT22;18508;49.386;8.370;2023-11-19T16:17:08;13.60;94.50
31991;DHT22;18508;49.386;8.370;2023-11-19T16:19:37;13.50;1.00
31991;DHT22;18508;49.386;8.370;2023-11-19T16:22:09;13.50;1.00
31991;DHT22;18508;49.386;8.370;2023-11-19T16:24:38;13.50;99.90
31991;DHT22;18508;49.386;8.370;2023-11-19T16:27:06;13.70;99.90
31991;DHT22;18508;49.386;8.370;2023-11-19T16:29:55;14.00;99.90
31991;DHT22;18508;49.386;8.370;2023-11-19T16:32:24;13.60;1.00
31991;DHT22;18508;49.386;8.370;2023-11-19T16:34:53;13.50;1.00
31991;DHT22;18508;49.386;8.370;2023-11-19T16:37:22;13.50;99.90
31991;DHT22;18508;49.386;8.370;2023-11-19T16:39:51;13.50;1.00
31991;DHT22;18508;49.386;8.370;2023-11-19T16:42:19;13.50;99.90
31991;DHT22;18508;49.386;8.370;2023-11-19T16:44:47;13.10;1.00
31991;DHT22;18508;49.386;8.370;2023-11-19T16:47:16;13.30;1.00
31991;DHT22;18508;49.386;8.370;2023-11-19T16:49:44;13.50;99.90
31991;DHT22;18508;49.386;8.370;2023-11-19T16:52:14;13.50;99.90
31991;DHT22;18508;49.386;8.370;2023-11-19T16:54:43;13.60;1.00
31991;DHT22;18508;49.386;8.370;2023-11-19T16:57:16;13.00;1.00
31991;DHT22;18508;49.386;8.370;2023-11-19T16:59:44;14.00;1.00
31991;DHT22;18508;49.386;8.370;2023-11-19T17:02:15;13.00;31.80
31991;DHT22;18508;49.386;8.370;2023-11-19T17:04:43;13.90;1.00
31991;DHT22;18508;49.386;8.370;2023-11-19T17:07:11;14.10;99.90
31991;DHT22;18508;49.386;8.370;2023-11-19T17:09:42;13.60;1.00
31991;DHT22;18508;49.386;8.370;2023-11-19T17:12:11;13.60;99.90
31991;DHT22;18508;49.386;8.370;2023-11-19T17:14:43;13.70;1.00
31991;DHT22;18508;49.386;8.370;2023-11-19T17:17:12;13.70;99.90
31991;DHT22;18508;49.386;8.370;2023-11-19T17:19:40;13.80;99.90
31991;DHT22;18508;49.386;8.370;2023-11-19T17:22:09;14.10;1.00
31991;DHT22;18508;49.386;8.370;2023-11-19T17:24:37;13.70;99.90
31991;DHT22;18508;49.386;8.370;2023-11-19T17:27:07;13.70;99.90
31991;DHT22;18508;49.386;8.370;2023-11-19T17:29:35;13.60;1.00
31991;DHT22;18508;49.386;8.370;2023-11-19T17:32:05;13.70;99.90
31991;DHT22;18508;49.386;8.370;2023-11-19T17:34:33;13.80;58.70
31991;DHT22;18508;49.386;8.370;2023-11-19T17:37:01;13.70;1.00
31991;DHT22;18508;49.386;8.370;2023-11-19T17:39:30;13.70;1.00
31991;DHT22;18508;49.386;8.370;2023-11-19T17:41:59;14.20;99.90
31991;DHT22;18508;49.386;8.370;2023-11-19T17:44:28;13.50;99.90
31991;DHT22;18508;49.386;8.370;2023-11-19T17:46:57;14.00;99.90
31991;DHT22;18508;49.386;8.370;2023-11-19T17:49:25;13.20;99.90
31991;DHT22;18508;49.386;8.370;2023-11-19T17:51:54;13.30;1.00
31991;DHT22;18508;49.386;8.370;2023-11-19T17:54:22;13.20;99.90
31991;DHT22;18508;49.386;8.370;2023-11-19T17:56:50;13.80;1.00
31991;DHT22;18508;49.386;8.370;2023-11-19T17:59:21;13.70;1.00
31991;DHT22;18508;49.386;8.370;2023-11-19T18:01:53;13.60;1.00
31991;DHT22;18508;49.386;8.370;2023-11-19T18:04:24;14.00;1.00
31991;DHT22;18508;49.386;8.370;2023-11-19T18:06:52;13.10;1.00
31991;DHT22;18508;49.386;8.370;2023-11-19T18:09:21;13.30;99.90